createdAt,value
2023-05-19T00:00:59.331Z,9.85
2023-05-19T00:01:59.353Z,9.83
2023-05-19T00:02:59.384Z,9.77
2023-05-19T00:03:59.325Z,9.77
2023-05-19T00:04:59.276Z,9.75
2023-05-19T00:05:59.344Z,9.74
2023-05-19T00:06:59.295Z,9.70
2023-05-19T00:07:59.270Z,9.67
2023-05-19T00:08:59.247Z,9.62
2023-05-19T00:09:59.272Z,9.60
2023-05-19T00:10:59.213Z,9.55
2023-05-19T00:11:59.234Z,9.52
2023-05-19T00:12:59.191Z,9.45
2023-05-19T00:13:59.278Z,9.41
2023-05-19T00:14:59.222Z,9.40
2023-05-19T00:15:59.250Z,9.41
2023-05-19T00:16:59.148Z,9.41
2023-05-19T00:17:59.184Z,9.40
2023-05-19T00:18:59.263Z,9.38
2023-05-19T00:19:59.199Z,9.35
2023-05-19T00:20:59.105Z,9.35
2023-05-19T00:21:59.120Z,9.34
2023-05-19T00:22:59.083Z,9.34
2023-05-19T00:23:59.138Z,9.34
2023-05-19T00:24:59.085Z,9.32
2023-05-19T00:25:59.084Z,9.30
2023-05-19T00:26:59.043Z,9.30
2023-05-19T00:27:59.068Z,9.27
2023-05-19T00:28:59.040Z,9.22
2023-05-19T00:29:59.053Z,9.27
2023-05-19T00:30:59.000Z,9.27
2023-05-19T00:31:59.056Z,9.35
2023-05-19T00:32:59.004Z,9.56
2023-05-19T00:33:58.991Z,9.63
2023-05-19T00:34:58.977Z,9.67
2023-05-19T00:35:58.972Z,9.74
2023-05-19T00:36:58.956Z,9.75
2023-05-19T00:37:58.954Z,9.78
2023-05-19T00:38:58.940Z,9.74
2023-05-19T00:39:58.945Z,9.67
2023-05-19T00:40:58.921Z,9.62
2023-05-19T00:41:58.903Z,9.60
2023-05-19T00:42:58.871Z,9.59
2023-05-19T00:43:58.895Z,9.56
2023-05-19T00:44:58.886Z,9.53
2023-05-19T00:45:58.868Z,9.42
2023-05-19T00:46:58.921Z,9.40
2023-05-19T00:47:58.890Z,9.35
2023-05-19T00:48:58.825Z,9.32
2023-05-19T00:49:58.864Z,9.31
2023-05-19T00:50:58.789Z,9.24
2023-05-19T00:51:58.805Z,9.19
2023-05-19T00:52:58.766Z,9.16
2023-05-19T00:53:58.791Z,9.12
2023-05-19T00:54:58.761Z,9.06
2023-05-19T00:55:58.768Z,8.98
2023-05-19T00:56:58.735Z,8.97
2023-05-19T00:57:58.769Z,8.93
2023-05-19T00:58:58.718Z,8.89
2023-05-19T00:59:58.737Z,8.85
2023-05-19T01:00:58.718Z,8.80
2023-05-19T01:01:58.701Z,8.79
2023-05-19T01:02:58.777Z,8.76
2023-05-19T01:03:58.935Z,8.78
2023-05-19T01:04:58.659Z,8.75
2023-05-19T01:05:58.659Z,8.76
2023-05-19T01:06:58.621Z,8.76
2023-05-19T01:07:58.639Z,8.76
2023-05-19T01:08:58.619Z,8.70
2023-05-19T01:09:58.629Z,8.65
2023-05-19T01:10:58.586Z,8.61
2023-05-19T01:11:58.592Z,8.55
2023-05-19T01:12:58.575Z,8.52
2023-05-19T01:13:58.578Z,8.45
2023-05-19T01:14:58.563Z,8.42
2023-05-19T01:15:58.567Z,8.39
2023-05-19T01:16:58.574Z,8.39
2023-05-19T01:17:58.550Z,8.32
2023-05-19T01:18:58.525Z,8.31
2023-05-19T01:19:58.527Z,8.27
2023-05-19T01:20:58.494Z,8.18
2023-05-19T01:21:58.501Z,8.10
2023-05-19T01:22:58.458Z,8.04
2023-05-19T01:23:58.463Z,7.99
2023-05-19T01:24:58.441Z,7.96
2023-05-19T01:25:58.457Z,7.95
2023-05-19T01:26:58.409Z,7.95
2023-05-19T01:27:58.428Z,7.92
2023-05-19T01:28:58.392Z,7.94
2023-05-19T01:29:58.402Z,7.92
2023-05-19T01:30:58.400Z,7.89
2023-05-19T01:31:58.464Z,7.89
2023-05-19T01:32:58.402Z,7.88
2023-05-19T01:33:58.375Z,7.88
2023-05-19T01:34:58.336Z,7.88
2023-05-19T01:35:58.341Z,7.88
2023-05-19T01:36:58.336Z,7.81
2023-05-19T01:37:58.360Z,7.76
2023-05-19T01:38:58.293Z,7.73
2023-05-19T01:39:58.311Z,7.67
2023-05-19T01:40:58.282Z,7.63
2023-05-19T01:41:58.314Z,7.58
2023-05-19T01:42:58.271Z,7.50
2023-05-19T01:43:58.310Z,7.44
2023-05-19T01:44:58.239Z,7.44
2023-05-19T01:45:58.271Z,7.44
2023-05-19T01:46:58.222Z,7.37
2023-05-19T01:47:58.353Z,7.33
2023-05-19T01:48:58.184Z,7.33
2023-05-19T01:49:58.210Z,7.33
2023-05-19T01:50:58.176Z,7.33
2023-05-19T01:51:58.194Z,7.33
2023-05-19T01:52:58.144Z,7.32
2023-05-19T01:53:58.172Z,7.26
2023-05-19T01:54:58.127Z,7.24
2023-05-19T01:55:58.134Z,7.23
2023-05-19T01:56:58.127Z,7.21
2023-05-19T01:57:58.127Z,7.19
2023-05-19T01:58:58.085Z,7.16
2023-05-19T01:59:58.100Z,7.19
2023-05-19T02:00:58.088Z,7.19
2023-05-19T02:01:58.092Z,7.19
2023-05-19T02:02:58.109Z,7.18
2023-05-19T02:03:58.071Z,7.16
2023-05-19T02:04:58.037Z,7.16
2023-05-19T02:05:58.034Z,7.12
2023-05-19T02:06:58.006Z,7.07
2023-05-19T02:07:58.027Z,7.01
2023-05-19T02:08:57.984Z,7.00
2023-05-19T02:09:57.986Z,7.00
2023-05-19T02:10:57.958Z,6.97
2023-05-19T02:11:57.970Z,6.91
2023-05-19T02:12:57.977Z,6.91
2023-05-19T02:13:57.956Z,6.86
2023-05-19T02:14:57.914Z,6.79
2023-05-19T02:15:57.971Z,6.75
2023-05-19T02:16:57.888Z,6.71
2023-05-19T02:17:57.920Z,6.72
2023-05-19T02:18:57.936Z,6.72
2023-05-19T02:19:57.881Z,6.72
2023-05-19T02:20:57.851Z,6.69
2023-05-19T02:21:57.872Z,6.63
2023-05-19T02:22:57.832Z,6.60
2023-05-19T02:23:57.864Z,6.60
2023-05-19T02:24:57.811Z,6.57
2023-05-19T02:25:57.817Z,6.60
2023-05-19T02:26:57.807Z,6.58
2023-05-19T02:27:57.811Z,6.61
2023-05-19T02:28:57.803Z,6.61
2023-05-19T02:29:57.801Z,6.61
2023-05-19T02:30:57.754Z,6.58
2023-05-19T02:31:57.775Z,6.61
2023-05-19T02:32:57.752Z,6.60
2023-05-19T02:33:57.753Z,6.60
2023-05-19T02:34:57.705Z,6.63
2023-05-19T02:35:57.739Z,6.68
2023-05-19T02:36:57.748Z,6.69
2023-05-19T02:37:57.699Z,6.72
2023-05-19T02:38:57.687Z,6.72
2023-05-19T02:39:57.721Z,6.69
2023-05-19T02:40:57.641Z,6.65
2023-05-19T02:41:57.656Z,6.65
2023-05-19T02:42:57.671Z,6.61
2023-05-19T02:43:57.705Z,6.63
2023-05-19T02:44:57.614Z,6.60
2023-05-19T02:45:57.660Z,6.58
2023-05-19T02:46:57.612Z,6.54
2023-05-19T02:47:57.643Z,6.48
2023-05-19T02:48:57.583Z,6.46
2023-05-19T02:49:57.583Z,6.42
2023-05-19T02:50:57.542Z,6.40
2023-05-19T02:51:57.568Z,6.36
2023-05-19T02:52:57.513Z,6.32
2023-05-19T02:53:57.556Z,6.27
2023-05-19T02:54:57.488Z,6.25
2023-05-19T02:55:57.508Z,6.25
2023-05-19T02:56:57.484Z,6.21
2023-05-19T02:57:57.483Z,6.24
2023-05-19T02:58:57.470Z,6.24
2023-05-19T02:59:57.459Z,6.21
2023-05-19T03:00:57.428Z,6.17
2023-05-19T03:01:57.496Z,6.13
2023-05-19T03:02:57.504Z,6.08
2023-05-19T03:03:57.451Z,6.06
2023-05-19T03:04:57.390Z,6.02
2023-05-19T03:05:57.399Z,5.99
2023-05-19T03:06:57.384Z,5.95
2023-05-19T03:07:57.396Z,5.92
2023-05-19T03:08:57.357Z,5.92
2023-05-19T03:09:57.364Z,5.85
2023-05-19T03:10:57.323Z,5.81
2023-05-19T03:11:57.343Z,5.83
2023-05-19T03:12:57.305Z,5.83
2023-05-19T03:13:57.327Z,5.81
2023-05-19T03:14:57.285Z,5.78
2023-05-19T03:15:57.342Z,5.77
2023-05-19T03:16:57.366Z,5.81
2023-05-19T03:17:57.399Z,5.81
2023-05-19T03:18:57.377Z,5.83
2023-05-19T03:19:57.266Z,5.80
2023-05-19T03:20:57.218Z,5.74
2023-05-19T03:21:57.232Z,5.73
2023-05-19T03:22:57.208Z,5.73
2023-05-19T03:23:57.221Z,5.70
2023-05-19T03:24:57.220Z,5.69
2023-05-19T03:25:57.162Z,5.66
2023-05-19T03:26:57.186Z,5.65
2023-05-19T03:27:57.148Z,5.62
2023-05-19T03:28:57.181Z,5.60
2023-05-19T03:29:57.135Z,5.60
2023-05-19T03:30:57.161Z,5.56
2023-05-19T03:31:57.107Z,5.55
2023-05-19T03:32:57.264Z,5.56
2023-05-19T03:33:57.096Z,5.58
2023-05-19T03:34:57.112Z,5.55
2023-05-19T03:35:57.094Z,5.56
2023-05-19T03:36:57.104Z,5.52
2023-05-19T03:37:57.038Z,5.55
2023-05-19T03:38:57.052Z,5.51
2023-05-19T03:39:57.014Z,5.51
2023-05-19T03:40:57.027Z,5.52
2023-05-19T03:41:56.994Z,5.49
2023-05-19T03:42:57.016Z,5.51
2023-05-19T03:43:56.967Z,5.49
2023-05-19T03:44:56.978Z,5.55
2023-05-19T03:45:56.955Z,5.58
2023-05-19T03:46:56.970Z,5.59
2023-05-19T03:47:56.956Z,5.56
2023-05-19T03:48:56.959Z,5.55
2023-05-19T03:49:56.942Z,5.51
2023-05-19T03:50:56.932Z,5.56
2023-05-19T03:51:56.881Z,5.52
2023-05-19T03:52:56.904Z,5.48
2023-05-19T03:53:56.856Z,5.45
2023-05-19T03:54:56.896Z,5.44
2023-05-19T03:56:02.901Z,5.45
2023-05-19T03:56:56.859Z,5.48
2023-05-19T03:57:56.818Z,5.51
2023-05-19T03:58:58.497Z,5.51
2023-05-19T03:59:56.799Z,5.49
2023-05-19T04:00:57.322Z,5.45
2023-05-19T04:01:56.816Z,5.48
2023-05-19T04:02:56.914Z,5.51
2023-05-19T04:03:56.783Z,5.51
2023-05-19T04:04:56.837Z,5.56
2023-05-19T04:05:56.728Z,5.58
2023-05-19T04:06:56.794Z,5.59
2023-05-19T04:07:56.712Z,5.58
2023-05-19T04:08:56.729Z,5.58
2023-05-19T04:09:56.684Z,5.59
2023-05-19T04:10:56.692Z,5.63
2023-05-19T04:11:56.662Z,5.69
2023-05-19T04:12:56.708Z,5.73
2023-05-19T04:13:56.660Z,5.74
2023-05-19T04:14:56.669Z,5.73
2023-05-19T04:15:56.655Z,5.74
2023-05-19T04:16:56.634Z,5.74
2023-05-19T04:17:56.664Z,5.73
2023-05-19T04:18:56.669Z,5.67
2023-05-19T04:19:56.580Z,5.69
2023-05-19T04:20:56.594Z,5.70
2023-05-19T04:21:56.552Z,5.70
2023-05-19T04:22:56.581Z,5.67
2023-05-19T04:23:56.529Z,5.67
2023-05-19T04:24:56.568Z,5.66
2023-05-19T04:25:56.516Z,5.67
2023-05-19T04:26:56.533Z,5.65
2023-05-19T04:27:56.492Z,5.63
2023-05-19T04:28:56.514Z,5.60
2023-05-19T04:29:56.521Z,5.60
2023-05-19T04:30:56.548Z,5.58
2023-05-19T04:31:56.454Z,5.58
2023-05-19T04:32:56.516Z,5.59
2023-05-19T04:33:56.456Z,5.56
2023-05-19T04:34:56.450Z,5.52
2023-05-19T04:35:56.406Z,5.49
2023-05-19T04:36:56.454Z,5.45
2023-05-19T04:37:56.390Z,5.47
2023-05-19T04:38:56.408Z,5.45
2023-05-19T04:39:56.392Z,5.44
2023-05-19T04:40:56.391Z,5.42
2023-05-19T04:41:56.342Z,5.42
2023-05-19T04:42:56.393Z,5.41
2023-05-19T04:43:56.323Z,5.42
2023-05-19T04:44:56.342Z,5.44
2023-05-19T04:45:56.312Z,5.44
2023-05-19T04:46:56.348Z,5.47
2023-05-19T04:47:56.314Z,5.47
2023-05-19T04:48:56.326Z,5.51
2023-05-19T04:49:56.269Z,5.59
2023-05-19T04:50:56.278Z,5.65
2023-05-19T04:51:56.243Z,5.69
2023-05-19T04:52:56.271Z,5.84
2023-05-19T04:53:56.229Z,6.03
2023-05-19T04:54:56.269Z,6.30
2023-05-19T04:55:56.210Z,6.54
2023-05-19T04:56:56.216Z,6.78
2023-05-19T04:57:56.190Z,6.97
2023-05-19T04:58:56.197Z,7.09
2023-05-19T04:59:56.164Z,7.30
2023-05-19T05:00:56.236Z,7.47
2023-05-19T05:01:56.230Z,7.55
2023-05-19T05:02:56.298Z,7.67
2023-05-19T05:03:56.177Z,7.79
2023-05-19T05:04:56.137Z,7.94
2023-05-19T05:05:56.094Z,8.04
2023-05-19T05:06:56.146Z,8.07
2023-05-19T05:07:56.070Z,8.22
2023-05-19T05:08:56.085Z,8.34
2023-05-19T05:09:56.050Z,8.37
2023-05-19T05:10:56.061Z,8.45
2023-05-19T05:11:56.025Z,8.55
2023-05-19T05:12:56.081Z,8.65
2023-05-19T05:13:56.023Z,8.76
2023-05-19T05:14:56.017Z,8.79
2023-05-19T05:15:56.018Z,8.80
2023-05-19T05:16:56.006Z,8.86
2023-05-19T05:17:55.996Z,9.00
2023-05-19T05:18:56.162Z,9.12
2023-05-19T05:19:55.946Z,9.19
2023-05-19T05:20:55.978Z,9.19
2023-05-19T05:21:55.921Z,9.22
2023-05-19T05:22:55.935Z,9.23
2023-05-19T05:23:55.905Z,9.32
2023-05-19T05:24:55.983Z,9.45
2023-05-19T05:25:55.900Z,9.56
2023-05-19T05:26:55.891Z,9.62
2023-05-19T05:27:55.859Z,9.73
2023-05-19T05:28:55.874Z,9.78
2023-05-19T05:29:58.624Z,9.86
2023-05-19T05:30:55.875Z,9.95
2023-05-19T05:31:55.865Z,10.02
2023-05-19T05:32:55.956Z,10.01
2023-05-19T05:33:55.789Z,10.09
2023-05-19T05:34:55.809Z,10.10
2023-05-19T05:35:55.770Z,10.11
2023-05-19T05:36:55.797Z,10.13
2023-05-19T05:37:55.756Z,10.24
2023-05-19T05:38:55.761Z,10.42
2023-05-19T05:39:55.732Z,10.46
2023-05-19T05:40:55.743Z,10.38
2023-05-19T05:41:55.707Z,10.44
2023-05-19T05:42:55.752Z,10.49
2023-05-19T05:43:55.690Z,10.63
2023-05-19T05:44:55.716Z,10.80
2023-05-19T05:45:55.737Z,10.86
2023-05-19T05:46:55.683Z,10.95
2023-05-19T05:47:55.700Z,10.94
2023-05-19T05:48:55.690Z,11.11
2023-05-19T05:49:55.643Z,11.12
2023-05-19T05:50:55.650Z,11.17
2023-05-19T05:52:05.758Z,11.20
2023-05-19T05:52:55.622Z,11.12
2023-05-19T05:53:55.592Z,11.12
2023-05-19T05:54:55.637Z,11.17
2023-05-19T05:55:55.634Z,11.19
2023-05-19T05:56:55.660Z,11.30
2023-05-19T05:57:55.548Z,11.44
2023-05-19T05:58:55.564Z,11.27
2023-05-19T05:59:55.522Z,11.36
2023-05-19T06:00:55.565Z,11.42
2023-05-19T06:01:55.546Z,11.54
2023-05-19T06:02:55.601Z,11.59
2023-05-19T06:03:55.500Z,11.72
2023-05-19T06:04:55.524Z,11.70
2023-05-19T06:05:55.601Z,11.85
2023-05-19T06:06:55.590Z,11.87
2023-05-19T06:07:55.442Z,11.75
2023-05-19T06:08:55.452Z,11.74
2023-05-19T06:09:55.438Z,11.82
2023-05-19T06:10:55.439Z,12.03
2023-05-19T06:11:55.402Z,12.00
2023-05-19T06:12:55.439Z,11.98
2023-05-19T06:13:55.386Z,12.08
2023-05-19T06:14:55.394Z,12.26
2023-05-19T06:15:55.412Z,12.23
2023-05-19T06:16:55.371Z,12.26
2023-05-19T06:17:55.353Z,12.30
2023-05-19T06:18:55.404Z,12.41
2023-05-19T06:19:55.308Z,12.67
2023-05-19T06:20:55.332Z,12.81
2023-05-19T06:21:55.294Z,12.77
2023-05-19T06:22:55.311Z,12.98
2023-05-19T06:23:55.276Z,13.01
2023-05-19T06:24:55.300Z,12.98
2023-05-19T06:25:55.257Z,12.98
2023-05-19T06:26:55.272Z,13.12
2023-05-19T06:27:55.240Z,13.14
2023-05-19T06:28:55.241Z,13.22
2023-05-19T06:29:55.221Z,13.43
2023-05-19T06:30:55.353Z,13.55
2023-05-19T06:31:55.195Z,13.61
2023-05-19T06:32:55.258Z,13.59
2023-05-19T06:33:55.172Z,13.55
2023-05-19T06:34:55.189Z,13.61
2023-05-19T06:35:55.147Z,13.75
2023-05-19T06:36:55.155Z,13.76
2023-05-19T06:37:55.125Z,13.84
2023-05-19T06:38:55.160Z,14.05
2023-05-19T06:39:55.139Z,14.23
2023-05-19T06:40:55.122Z,14.30
2023-05-19T06:41:55.078Z,14.39
2023-05-19T06:42:55.098Z,14.46
2023-05-19T06:43:55.054Z,14.56
2023-05-19T06:44:55.095Z,14.59
2023-05-19T06:45:55.040Z,14.64
2023-05-19T06:46:55.080Z,14.71
2023-05-19T06:47:55.077Z,14.69
2023-05-19T06:48:55.036Z,14.71
2023-05-19T06:49:55.717Z,14.66
2023-05-19T06:50:55.014Z,14.80
2023-05-19T06:51:54.980Z,14.82
2023-05-19T06:52:54.983Z,14.91
2023-05-19T06:53:54.950Z,15.07
2023-05-19T06:54:54.966Z,15.28
2023-05-19T06:55:59.821Z,15.43
2023-05-19T06:56:54.943Z,15.33
2023-05-19T06:57:54.909Z,15.46
2023-05-19T06:58:54.918Z,15.70
2023-05-19T06:59:54.897Z,15.55
2023-05-19T07:00:54.894Z,15.43
2023-05-19T07:01:54.890Z,15.58
2023-05-19T07:02:54.922Z,15.73
2023-05-19T07:03:54.930Z,15.99
2023-05-19T07:04:54.878Z,16.17
2023-05-19T07:05:54.823Z,15.93
2023-05-19T07:06:54.833Z,15.49
2023-05-19T07:07:54.805Z,15.52
2023-05-19T07:08:54.810Z,15.71
2023-05-19T07:09:54.781Z,15.95
2023-05-19T07:10:54.811Z,15.81
2023-05-19T07:11:54.759Z,15.78
2023-05-19T07:12:54.768Z,15.66
2023-05-19T07:13:54.745Z,15.88
2023-05-19T07:14:54.751Z,16.23
2023-05-19T07:15:54.766Z,16.34
2023-05-19T07:16:54.862Z,16.27
2023-05-19T07:17:54.741Z,16.26
2023-05-19T07:18:54.726Z,16.41
2023-05-19T07:19:54.681Z,16.37
2023-05-19T07:20:54.742Z,16.06
2023-05-19T07:21:54.674Z,15.96
2023-05-19T07:22:54.670Z,15.92
2023-05-19T07:23:54.650Z,16.04
2023-05-19T07:24:54.651Z,16.04
2023-05-19T07:25:54.630Z,16.06
2023-05-19T07:26:54.634Z,16.14
2023-05-19T07:27:54.598Z,16.32
2023-05-19T07:28:54.605Z,15.98
2023-05-19T07:29:54.575Z,15.80
2023-05-19T07:30:54.609Z,15.58
2023-05-19T07:31:54.622Z,15.46
2023-05-19T07:32:54.580Z,15.55
2023-05-19T07:33:54.904Z,15.70
2023-05-19T07:34:54.547Z,15.92
2023-05-19T07:35:54.531Z,16.16
2023-05-19T07:36:54.530Z,16.48
2023-05-19T07:37:54.525Z,16.80
2023-05-19T07:38:54.539Z,16.51
2023-05-19T07:39:54.505Z,16.34
2023-05-19T07:40:54.481Z,16.16
2023-05-19T07:41:54.480Z,15.96
2023-05-19T07:42:54.447Z,16.01
2023-05-19T07:43:54.462Z,16.13
2023-05-19T07:44:54.420Z,16.11
2023-05-19T07:45:54.491Z,16.23
2023-05-19T07:46:54.404Z,16.40
2023-05-19T07:47:54.460Z,16.51
2023-05-19T07:48:54.385Z,16.36
2023-05-19T07:49:54.410Z,16.29
2023-05-19T07:50:54.385Z,16.14
2023-05-19T07:51:54.376Z,16.34
2023-05-19T07:52:54.347Z,16.59
2023-05-19T07:53:54.352Z,16.95
2023-05-19T07:54:54.339Z,17.00
2023-05-19T07:55:55.471Z,16.95
2023-05-19T07:56:54.306Z,17.00
2023-05-19T07:57:54.334Z,17.27
2023-05-19T07:58:54.281Z,17.25
2023-05-19T07:59:54.292Z,16.99
2023-05-19T08:00:54.288Z,17.10
2023-05-19T08:01:54.272Z,17.33
2023-05-19T08:02:54.299Z,17.30
2023-05-19T08:03:54.396Z,17.15
2023-05-19T08:04:54.399Z,16.92
2023-05-19T08:05:54.248Z,17.14
2023-05-19T08:06:54.203Z,17.53
2023-05-19T08:07:54.203Z,17.91
2023-05-19T08:08:54.208Z,17.65
2023-05-19T08:09:54.181Z,16.87
2023-05-19T08:10:54.205Z,17.05
2023-05-19T08:11:54.163Z,17.07
2023-05-19T08:12:54.134Z,16.82
2023-05-19T08:13:54.163Z,16.87
2023-05-19T08:14:54.109Z,16.91
2023-05-19T08:15:54.165Z,16.99
2023-05-19T08:16:54.087Z,16.78
2023-05-19T08:17:54.118Z,16.47
2023-05-19T08:18:54.119Z,16.37
2023-05-19T08:19:54.079Z,16.30
2023-05-19T08:20:54.071Z,16.07
2023-05-19T08:21:54.061Z,16.06
2023-05-19T08:22:54.035Z,15.89
2023-05-19T08:23:54.038Z,15.92
2023-05-19T08:24:54.006Z,15.89
2023-05-19T08:25:54.055Z,15.96
2023-05-19T08:26:53.986Z,16.06
2023-05-19T08:27:53.996Z,16.13
2023-05-19T08:28:53.963Z,16.29
2023-05-19T08:29:53.977Z,16.23
2023-05-19T08:30:53.973Z,16.14
2023-05-19T08:31:54.136Z,16.45
2023-05-19T08:32:53.937Z,16.55
2023-05-19T08:33:53.932Z,16.78
2023-05-19T08:34:53.897Z,16.91
2023-05-19T08:35:53.922Z,16.84
2023-05-19T08:36:53.886Z,16.84
2023-05-19T08:37:53.881Z,17.07
2023-05-19T08:38:53.845Z,17.51
2023-05-19T08:39:53.858Z,17.58
2023-05-19T08:40:53.849Z,17.27
2023-05-19T08:41:53.836Z,17.07
2023-05-19T08:42:53.803Z,17.06
2023-05-19T08:43:53.826Z,17.17
2023-05-19T08:44:53.791Z,17.30
2023-05-19T08:45:53.808Z,17.21
2023-05-19T08:46:53.800Z,17.17
2023-05-19T08:47:53.800Z,17.15
2023-05-19T08:48:53.738Z,17.33
2023-05-19T08:49:53.743Z,17.65
2023-05-19T08:50:53.724Z,18.05
2023-05-19T08:51:53.730Z,18.13
2023-05-19T08:52:53.753Z,18.02
2023-05-19T08:53:53.708Z,18.19
2023-05-19T08:54:53.690Z,18.46
2023-05-19T08:55:53.677Z,18.71
2023-05-19T08:56:53.690Z,18.54
2023-05-19T08:57:53.655Z,18.71
2023-05-19T08:58:53.623Z,18.50
2023-05-19T08:59:53.641Z,18.29
2023-05-19T09:00:53.661Z,18.09
2023-05-19T09:01:53.629Z,18.25
2023-05-19T09:03:00.898Z,18.23
2023-05-19T09:03:53.651Z,18.34
2023-05-19T09:04:53.681Z,18.60
2023-05-19T09:05:53.619Z,18.83
2023-05-19T09:06:53.534Z,18.49
2023-05-19T09:07:53.582Z,18.54
2023-05-19T09:08:53.541Z,18.76
2023-05-19T09:09:53.526Z,18.84
2023-05-19T09:10:53.506Z,19.01
2023-05-19T09:11:53.502Z,18.60
2023-05-19T09:12:53.471Z,18.29
2023-05-19T09:13:53.477Z,18.19
2023-05-19T09:14:53.475Z,17.95
2023-05-19T09:15:53.471Z,17.89
2023-05-19T09:16:53.524Z,17.81
2023-05-19T09:17:53.458Z,17.84
2023-05-19T09:18:53.417Z,17.94
2023-05-19T09:19:53.416Z,18.14
2023-05-19T09:20:53.402Z,18.11
2023-05-19T09:21:53.400Z,17.86
2023-05-19T09:22:53.350Z,17.92
2023-05-19T09:23:53.360Z,18.13
2023-05-19T09:24:53.323Z,18.29
2023-05-19T09:25:53.384Z,18.53
2023-05-19T09:26:53.345Z,18.78
2023-05-19T09:27:53.322Z,19.05
2023-05-19T09:28:53.297Z,19.25
2023-05-19T09:29:53.285Z,19.46
2023-05-19T09:30:53.258Z,19.50
2023-05-19T09:31:53.275Z,19.50
2023-05-19T09:32:53.365Z,19.60
2023-05-19T09:33:53.259Z,19.70
2023-05-19T09:34:53.221Z,19.92
2023-05-19T09:35:53.240Z,19.49
2023-05-19T09:36:53.464Z,19.43
2023-05-19T09:37:53.216Z,19.39
2023-05-19T09:38:53.205Z,19.53
2023-05-19T09:39:53.183Z,19.53
2023-05-19T09:40:53.161Z,19.42
2023-05-19T09:41:53.159Z,19.39
2023-05-19T09:42:53.122Z,19.15
2023-05-19T09:43:53.137Z,19.02
2023-05-19T09:44:53.127Z,19.15
2023-05-19T09:45:53.146Z,19.47
2023-05-19T09:46:53.092Z,19.28
2023-05-19T09:47:53.167Z,18.91
2023-05-19T09:48:53.054Z,18.75
2023-05-19T09:49:53.077Z,18.87
2023-05-19T09:50:53.075Z,18.69
2023-05-19T09:51:53.045Z,18.36
2023-05-19T09:52:53.018Z,18.05
2023-05-19T09:53:53.031Z,17.89
2023-05-19T09:54:53.020Z,17.94
2023-05-19T09:55:53.024Z,18.07
2023-05-19T09:56:53.018Z,18.23
2023-05-19T09:57:53.001Z,18.36
2023-05-19T09:58:52.952Z,18.44
2023-05-19T09:59:52.962Z,18.36
2023-05-19T10:00:52.937Z,18.41
2023-05-19T10:01:53.036Z,18.51
2023-05-19T10:02:53.128Z,18.41
2023-05-19T10:03:53.010Z,18.60
2023-05-19T10:04:52.886Z,18.65
2023-05-19T10:05:52.956Z,18.42
2023-05-19T10:06:52.866Z,18.32
2023-05-19T10:07:52.912Z,18.65
2023-05-19T10:08:52.859Z,18.75
2023-05-19T10:09:52.855Z,18.64
2023-05-19T10:10:52.816Z,18.53
2023-05-19T10:11:52.917Z,18.91
2023-05-19T10:12:52.810Z,19.07
2023-05-19T10:13:52.802Z,18.74
2023-05-19T10:14:52.792Z,18.68
2023-05-19T10:15:58.922Z,18.41
2023-05-19T10:16:52.789Z,18.51
2023-05-19T10:17:52.821Z,18.54
2023-05-19T10:18:52.797Z,18.49
2023-05-19T10:19:52.752Z,18.36
2023-05-19T10:20:52.733Z,18.50
2023-05-19T10:21:52.736Z,18.91
2023-05-19T10:22:52.689Z,18.82
2023-05-19T10:23:52.770Z,18.97
2023-05-19T10:24:52.674Z,18.76
2023-05-19T10:25:52.698Z,18.97
2023-05-19T10:26:52.657Z,19.25
2023-05-19T10:27:52.655Z,19.17
2023-05-19T10:28:52.622Z,18.93
2023-05-19T10:29:52.653Z,18.87
2023-05-19T10:30:52.594Z,18.65
2023-05-19T10:31:52.706Z,18.42
2023-05-19T10:32:52.615Z,18.54
2023-05-19T10:33:52.612Z,18.59
2023-05-19T10:34:52.555Z,18.69
2023-05-19T10:35:52.575Z,18.82
2023-05-19T10:36:52.535Z,18.69
2023-05-19T10:37:52.571Z,18.51
2023-05-19T10:38:52.533Z,18.46
2023-05-19T10:39:52.516Z,18.64
2023-05-19T10:40:52.483Z,18.64
2023-05-19T10:41:52.510Z,18.69
2023-05-19T10:42:52.474Z,18.57
2023-05-19T10:43:52.466Z,18.69
2023-05-19T10:44:52.474Z,18.69
2023-05-19T10:45:52.454Z,18.65
2023-05-19T10:46:54.132Z,18.71
2023-05-19T10:47:52.509Z,18.75
2023-05-19T10:48:52.393Z,18.84
2023-05-19T10:49:52.413Z,19.01
2023-05-19T10:50:52.395Z,19.25
2023-05-19T10:51:52.443Z,19.43
2023-05-19T10:52:52.357Z,19.24
2023-05-19T10:53:52.362Z,19.16
2023-05-19T10:54:52.346Z,18.93
2023-05-19T10:55:52.351Z,18.91
2023-05-19T10:56:52.322Z,18.93
2023-05-19T10:57:52.324Z,18.99
2023-05-19T10:58:52.334Z,19.20
2023-05-19T10:59:52.351Z,19.45
2023-05-19T11:00:52.262Z,19.15
2023-05-19T11:01:52.348Z,18.89
2023-05-19T11:02:52.297Z,18.94
2023-05-19T11:03:52.406Z,19.09
2023-05-19T11:04:52.366Z,19.07
2023-05-19T11:05:52.269Z,18.84
2023-05-19T11:06:52.194Z,18.71
2023-05-19T11:07:52.200Z,18.89
2023-05-19T11:08:52.189Z,19.15
2023-05-19T11:09:52.180Z,19.34
2023-05-19T11:10:52.156Z,19.52
2023-05-19T11:11:52.160Z,19.58
2023-05-19T11:12:52.299Z,19.65
2023-05-19T11:13:52.142Z,19.50
2023-05-19T11:14:52.151Z,19.58
2023-05-19T11:15:52.112Z,19.49
2023-05-19T11:16:52.169Z,19.40
2023-05-19T11:17:52.136Z,19.58
2023-05-19T11:18:52.093Z,19.79
2023-05-19T11:19:52.082Z,19.85
2023-05-19T11:20:52.112Z,20.00
2023-05-19T11:21:52.044Z,19.92
2023-05-19T11:22:52.036Z,19.95
2023-05-19T11:23:52.071Z,19.98
2023-05-19T11:24:52.010Z,20.19
2023-05-19T11:25:52.044Z,20.16
2023-05-19T11:26:52.022Z,20.07
2023-05-19T11:27:51.987Z,19.98
2023-05-19T11:28:51.948Z,19.85
2023-05-19T11:29:52.051Z,19.89
2023-05-19T11:30:52.483Z,19.79
2023-05-19T11:31:52.024Z,19.78
2023-05-19T11:32:51.977Z,19.58
2023-05-19T11:33:51.925Z,19.40
2023-05-19T11:34:51.901Z,19.30
2023-05-19T11:35:51.917Z,19.32
2023-05-19T11:36:51.881Z,19.39
2023-05-19T11:37:51.887Z,19.45
2023-05-19T11:38:51.886Z,19.49
2023-05-19T11:39:51.858Z,19.75
2023-05-19T11:40:51.820Z,19.85
2023-05-19T11:41:51.834Z,20.13
2023-05-19T11:42:51.810Z,20.51
2023-05-19T11:43:51.823Z,20.93
2023-05-19T11:44:51.828Z,21.13
2023-05-19T11:45:51.822Z,20.68
2023-05-19T11:46:51.807Z,20.00
2023-05-19T11:48:02.088Z,20.07
2023-05-19T11:48:51.751Z,20.20
2023-05-19T11:49:51.760Z,20.23
2023-05-19T11:50:51.751Z,20.31
2023-05-19T11:51:51.726Z,20.51
2023-05-19T11:52:51.707Z,20.34
2023-05-19T11:53:51.703Z,20.22
2023-05-19T11:54:51.695Z,20.17
2023-05-19T11:55:51.991Z,20.20
2023-05-19T11:56:51.712Z,20.26
2023-05-19T11:58:02.722Z,20.22
2023-05-19T11:58:51.661Z,20.00
2023-05-19T11:59:51.627Z,19.71
2023-05-19T12:00:51.654Z,19.79
2023-05-19T12:01:51.602Z,19.92
2023-05-19T12:02:51.722Z,19.97
2023-05-19T12:03:51.696Z,19.87
2023-05-19T12:04:51.634Z,20.02
2023-05-19T12:05:51.708Z,20.16
2023-05-19T12:06:51.561Z,20.33
2023-05-19T12:07:51.537Z,20.07
2023-05-19T12:08:51.555Z,19.82
2023-05-19T12:09:51.509Z,20.08
2023-05-19T12:10:51.536Z,20.02
2023-05-19T12:11:51.483Z,19.76
2023-05-19T12:12:51.513Z,19.82
2023-05-19T12:13:51.474Z,19.80
2023-05-19T12:14:51.523Z,19.98
2023-05-19T12:15:51.477Z,20.27
2023-05-19T12:16:51.572Z,20.42
2023-05-19T12:17:51.498Z,20.44
2023-05-19T12:18:51.483Z,20.19
2023-05-19T12:19:51.411Z,20.26
2023-05-19T12:20:51.455Z,20.48
2023-05-19T12:21:51.393Z,20.60
2023-05-19T12:22:51.396Z,20.57
2023-05-19T12:23:51.368Z,20.75
2023-05-19T12:24:51.370Z,20.42
2023-05-19T12:25:51.348Z,20.48
2023-05-19T12:26:51.386Z,20.69
2023-05-19T12:27:51.323Z,20.72
2023-05-19T12:28:51.365Z,20.63
2023-05-19T12:29:51.312Z,20.72
2023-05-19T12:30:51.312Z,20.71
2023-05-19T12:31:51.311Z,20.79
2023-05-19T12:32:51.330Z,20.87
2023-05-19T12:33:51.292Z,20.25
2023-05-19T12:34:51.276Z,19.86
2023-05-19T12:35:51.233Z,19.75
2023-05-19T12:36:51.250Z,19.72
2023-05-19T12:37:51.212Z,19.82
2023-05-19T12:38:51.246Z,20.02
2023-05-19T12:39:51.209Z,19.97
2023-05-19T12:40:51.242Z,20.22
2023-05-19T12:41:51.163Z,20.69
2023-05-19T12:42:51.182Z,20.73
2023-05-19T12:43:51.193Z,20.75
2023-05-19T12:44:51.192Z,20.58
2023-05-19T12:45:51.168Z,20.54
2023-05-19T12:46:51.171Z,20.83
2023-05-19T12:47:51.170Z,20.93
2023-05-19T12:48:51.129Z,21.06
2023-05-19T12:49:51.081Z,21.26
2023-05-19T12:50:51.124Z,21.48
2023-05-19T12:51:51.071Z,21.59
2023-05-19T12:52:51.080Z,21.59
2023-05-19T12:53:51.103Z,21.33
2023-05-19T12:54:51.089Z,21.37
2023-05-19T12:55:51.018Z,21.49
2023-05-19T12:56:51.050Z,21.45
2023-05-19T12:57:50.999Z,21.42
2023-05-19T12:58:51.040Z,21.31
2023-05-19T12:59:50.975Z,21.26
2023-05-19T13:00:51.087Z,21.33
2023-05-19T13:01:50.973Z,21.49
2023-05-19T13:02:51.064Z,21.34
2023-05-19T13:03:51.187Z,21.40